sensor_id;sensor_type;location;lat;lon;timestamp;pressure;altitude;pressure_sealevel;temperature;humidity
74798;BME280;63326;45.088;7.658;2023-05-10T00:00:21;98156.38;;;15.28;90.48
74798;BME280;63326;45.088;7.658;2023-05-10T00:02:49;98182.41;;;15.41;90.16
74798;BME280;63326;45.088;7.658;2023-05-10T00:05:16;98152.25;;;15.25;89.81
74798;BME280;63326;45.088;7.658;2023-05-10T00:07:43;98179.13;;;15.39;90.36
74798;BME280;63326;45.088;7.658;2023-05-10T00:10:12;98193.53;;;15.51;90.03
74798;BME280;63326;45.088;7.658;2023-05-10T00:12:39;98155.63;;;15.21;89.97
74798;BME280;63326;45.088;7.658;2023-05-10T00:15:07;98175.44;;;15.33;89.95
74798;BME280;63326;45.088;7.658;2023-05-10T00:17:34;98200.44;;;15.47;90.10
74798;BME280;63326;45.088;7.658;2023-05-10T00:20:01;98181.22;;;15.37;89.80
74798;BME280;63326;45.088;7.658;2023-05-10T00:22:28;98162.00;;;15.26;90.44
74798;BME280;63326;45.088;7.658;2023-05-10T00:24:54;98173.34;;;15.35;90.21
74798;BME280;63326;45.088;7.658;2023-05-10T00:27:21;98184.28;;;15.40;90.10
74798;BME280;63326;45.088;7.658;2023-05-10T00:29:51;98184.16;;;15.35;89.88
74798;BME280;63326;45.088;7.658;2023-05-10T00:32:17;98149.38;;;15.20;89.91
74798;BME280;63326;45.088;7.658;2023-05-10T00:34:44;98136.13;;;15.19;89.29
74798;BME280;63326;45.088;7.658;2023-05-10T00:37:11;98195.25;;;15.45;90.38
74798;BME280;63326;45.088;7.658;2023-05-10T00:39:37;98173.78;;;15.32;90.31
74798;BME280;63326;45.088;7.658;2023-05-10T00:42:04;98144.91;;;15.14;90.12
74798;BME280;63326;45.088;7.658;2023-05-10T00:44:31;98142.81;;;15.16;90.52
74798;BME280;63326;45.088;7.658;2023-05-10T00:46:58;98150.38;;;15.26;90.49
74798;BME280;63326;45.088;7.658;2023-05-10T00:49:25;98138.69;;;15.14;90.00
74798;BME280;63326;45.088;7.658;2023-05-10T00:51:52;98197.28;;;15.50;89.96
74798;BME280;63326;45.088;7.658;2023-05-10T00:54:19;98179.13;;;15.39;89.51
74798;BME280;63326;45.088;7.658;2023-05-10T00:56:47;98206.50;;;15.42;88.76
74798;BME280;63326;45.088;7.658;2023-05-10T00:59:16;98175.06;;;15.30;88.78
74798;BME280;63326;45.088;7.658;2023-05-10T01:01:44;98157.19;;;15.10;88.04
74798;BME280;63326;45.088;7.658;2023-05-10T01:04:12;98178.44;;;15.25;88.31
74798;BME280;63326;45.088;7.658;2023-05-10T01:06:41;98196.28;;;15.26;87.29
74798;BME280;63326;45.088;7.658;2023-05-10T01:09:10;98179.91;;;15.21;87.20
74798;BME280;63326;45.088;7.658;2023-05-10T01:11:39;98155.41;;;15.04;87.79
74798;BME280;63326;45.088;7.658;2023-05-10T01:14:06;98197.72;;;15.28;87.18
74798;BME280;63326;45.088;7.658;2023-05-10T01:16:37;98182.31;;;15.11;87.31
74798;BME280;63326;45.088;7.658;2023-05-10T01:19:08;98193.66;;;15.19;87.65
74798;BME280;63326;45.088;7.658;2023-05-10T01:34:59;98216.03;;;15.02;86.12
74798;BME280;63326;45.088;7.658;2023-05-10T01:37:33;98182.00;;;14.76;85.86
74798;BME280;63326;45.088;7.658;2023-05-10T01:42:50;98199.25;;;14.75;85.14
74798;BME280;63326;45.088;7.658;2023-05-10T01:45:28;98195.78;;;14.67;85.48
74798;BME280;63326;45.088;7.658;2023-05-10T01:48:05;98225.75;;;14.84;85.62
74798;BME280;63326;45.088;7.658;2023-05-10T01:50:35;98229.44;;;14.90;85.48
74798;BME280;63326;45.088;7.658;2023-05-10T01:53:06;98234.81;;;14.90;84.56
74798;BME280;63326;45.088;7.658;2023-05-10T01:55:47;98198.25;;;14.69;85.22
74798;BME280;63326;45.088;7.658;2023-05-10T01:58:20;98233.63;;;14.86;84.84
74798;BME280;63326;45.088;7.658;2023-05-10T02:00:50;98221.41;;;14.83;84.76
74798;BME280;63326;45.088;7.658;2023-05-10T02:03:20;98193.53;;;14.64;84.19
74798;BME280;63326;45.088;7.658;2023-05-10T02:05:49;98234.06;;;14.83;83.75
74798;BME280;63326;45.088;7.658;2023-05-10T02:08:21;98197.03;;;14.65;83.46
74798;BME280;63326;45.088;7.658;2023-05-10T02:10:50;98236.13;;;14.81;83.51
74798;BME280;63326;45.088;7.658;2023-05-10T02:13:19;98225.19;;;14.76;83.02
74798;BME280;63326;45.088;7.658;2023-05-10T02:15:48;98223.28;;;14.83;82.59
74798;BME280;63326;45.088;7.658;2023-05-10T02:18:16;98233.09;;;14.70;82.72
74798;BME280;63326;45.088;7.658;2023-05-10T02:20:45;98227.09;;;14.68;82.71
74798;BME280;63326;45.088;7.658;2023-05-10T02:23:15;98240.38;;;14.70;82.42
74798;BME280;63326;45.088;7.658;2023-05-10T02:25:44;98183.06;;;14.43;82.17
74798;BME280;63326;45.088;7.658;2023-05-10T02:28:14;98205.06;;;14.40;82.19
74798;BME280;63326;45.088;7.658;2023-05-10T02:30:42;98207.59;;;14.35;81.96
74798;BME280;63326;45.088;7.658;2023-05-10T02:33:11;98224.97;;;14.39;81.89
74798;BME280;63326;45.088;7.658;2023-05-10T02:35:38;98221.91;;;14.35;82.00
74798;BME280;63326;45.088;7.658;2023-05-10T02:38:06;98259.38;;;14.50;82.41
74798;BME280;63326;45.088;7.658;2023-05-10T02:40:34;98225.25;;;14.31;82.34
74798;BME280;63326;45.088;7.658;2023-05-10T02:43:04;98236.44;;;14.34;82.17
74798;BME280;63326;45.088;7.658;2023-05-10T02:45:34;98266.47;;;14.51;81.23
74798;BME280;63326;45.088;7.658;2023-05-10T02:48:02;98251.34;;;14.37;82.08
74798;BME280;63326;45.088;7.658;2023-05-10T02:50:30;98262.34;;;14.42;81.69
74798;BME280;63326;45.088;7.658;2023-05-10T02:53:08;98253.88;;;14.32;82.42
74798;BME280;63326;45.088;7.658;2023-05-10T02:55:37;98259.69;;;14.29;82.25
74798;BME280;63326;45.088;7.658;2023-05-10T02:58:06;98253.25;;;14.30;82.17
74798;BME280;63326;45.088;7.658;2023-05-10T03:00:33;98234.91;;;14.13;82.05
74798;BME280;63326;45.088;7.658;2023-05-10T03:03:00;98222.25;;;14.14;81.66
74798;BME280;63326;45.088;7.658;2023-05-10T03:05:27;98226.19;;;14.11;82.13
74798;BME280;63326;45.088;7.658;2023-05-10T03:07:57;98246.28;;;14.16;82.33
74798;BME280;63326;45.088;7.658;2023-05-10T03:10:27;98257.44;;;14.19;81.32
74798;BME280;63326;45.088;7.658;2023-05-10T03:15:52;98267.78;;;14.29;82.21
74798;BME280;63326;45.088;7.658;2023-05-10T03:18:44;98272.97;;;14.30;81.51
74798;BME280;63326;45.088;7.658;2023-05-10T03:21:17;98265.97;;;14.23;81.72
74798;BME280;63326;45.088;7.658;2023-05-10T03:23:51;98256.25;;;14.15;82.14
74798;BME280;63326;45.088;7.658;2023-05-10T03:26:27;98277.34;;;14.25;81.51
74798;BME280;63326;45.088;7.658;2023-05-10T03:29:06;98290.00;;;14.24;81.34
74798;BME280;63326;45.088;7.658;2023-05-10T03:31:33;98257.53;;;13.99;81.57
74798;BME280;63326;45.088;7.658;2023-05-10T03:33:59;98250.09;;;13.95;82.16
74798;BME280;63326;45.088;7.658;2023-05-10T03:36:26;98274.75;;;14.05;82.07
74798;BME280;63326;45.088;7.658;2023-05-10T03:38:54;98295.00;;;14.21;81.54
74798;BME280;63326;45.088;7.658;2023-05-10T03:41:21;98264.41;;;13.95;81.58
74798;BME280;63326;45.088;7.658;2023-05-10T03:43:51;98257.59;;;13.86;82.14
74798;BME280;63326;45.088;7.658;2023-05-10T03:46:18;98302.31;;;14.07;81.67
74798;BME280;63326;45.088;7.658;2023-05-10T03:48:45;98299.22;;;14.03;81.89
74798;BME280;63326;45.088;7.658;2023-05-10T03:51:12;98265.50;;;13.81;81.94
74798;BME280;63326;45.088;7.658;2023-05-10T03:53:39;98289.72;;;13.94;80.99
74798;BME280;63326;45.088;7.658;2023-05-10T03:56:06;98287.03;;;13.88;81.00
74798;BME280;63326;45.088;7.658;2023-05-10T03:58:32;98297.56;;;13.96;81.23
74798;BME280;63326;45.088;7.658;2023-05-10T04:00:59;98290.97;;;13.85;81.64
74798;BME280;63326;45.088;7.658;2023-05-10T04:03:25;98318.31;;;13.95;81.63
74798;BME280;63326;45.088;7.658;2023-05-10T04:06:00;98291.03;;;13.72;81.72
74798;BME280;63326;45.088;7.658;2023-05-10T04:08:27;98314.78;;;13.95;81.82
74798;BME280;63326;45.088;7.658;2023-05-10T04:11:11;98274.25;;;13.63;81.97
74798;BME280;63326;45.088;7.658;2023-05-10T04:13:38;98295.16;;;13.74;81.64
74798;BME280;63326;45.088;7.658;2023-05-10T04:16:05;98285.63;;;13.59;81.88
74798;BME280;63326;45.088;7.658;2023-05-10T04:18:32;98318.34;;;13.82;82.08
74798;BME280;63326;45.088;7.658;2023-05-10T04:20:59;98321.22;;;13.87;81.79
74798;BME280;63326;45.088;7.658;2023-05-10T04:23:27;98306.53;;;13.76;81.87
74798;BME280;63326;45.088;7.658;2023-05-10T04:26:02;98335.34;;;13.82;81.99
74798;BME280;63326;45.088;7.658;2023-05-10T04:28:29;98325.63;;;13.75;82.17
74798;BME280;63326;45.088;7.658;2023-05-10T04:31:07;98334.09;;;13.78;82.16
74798;BME280;63326;45.088;7.658;2023-05-10T04:33:34;98291.66;;;13.54;82.03
74798;BME280;63326;45.088;7.658;2023-05-10T04:36:02;98308.66;;;13.61;82.29
74798;BME280;63326;45.088;7.658;2023-05-10T04:38:29;98308.66;;;13.61;82.14
74798;BME280;63326;45.088;7.658;2023-05-10T04:41:07;98302.63;;;13.66;82.09
74798;BME280;63326;45.088;7.658;2023-05-10T04:43:37;98319.22;;;13.69;81.64
74798;BME280;63326;45.088;7.658;2023-05-10T04:46:05;98297.47;;;13.58;82.40
74798;BME280;63326;45.088;7.658;2023-05-10T04:48:32;98338.88;;;13.83;81.83
74798;BME280;63326;45.088;7.658;2023-05-10T04:51:00;98305.53;;;13.58;82.12
74798;BME280;63326;45.088;7.658;2023-05-10T04:53:29;98322.53;;;13.65;82.01
74798;BME280;63326;45.088;7.658;2023-05-10T04:55:56;98312.19;;;13.55;82.24
74798;BME280;63326;45.088;7.658;2023-05-10T04:58:23;98330.59;;;13.71;81.55
74798;BME280;63326;45.088;7.658;2023-05-10T05:00:50;98325.88;;;13.60;82.30
74798;BME280;63326;45.088;7.658;2023-05-10T05:03:16;98360.44;;;13.76;82.32
74798;BME280;63326;45.088;7.658;2023-05-10T05:05:44;98353.16;;;13.77;82.23
74798;BME280;63326;45.088;7.658;2023-05-10T05:08:11;98323.16;;;13.53;82.58
74798;BME280;63326;45.088;7.658;2023-05-10T05:10:38;98347.38;;;13.80;81.91
74798;BME280;63326;45.088;7.658;2023-05-10T05:13:05;98322.34;;;13.60;81.79
74798;BME280;63326;45.088;7.658;2023-05-10T05:15:32;98314.88;;;13.55;81.60
74798;BME280;63326;45.088;7.658;2023-05-10T05:17:59;98355.66;;;13.92;81.66
74798;BME280;63326;45.088;7.658;2023-05-10T05:20:26;98328.53;;;13.73;81.76
74798;BME280;63326;45.088;7.658;2023-05-10T05:22:55;98329.75;;;13.77;81.38
74798;BME280;63326;45.088;7.658;2023-05-10T05:25:22;98319.84;;;13.71;81.32
74798;BME280;63326;45.088;7.658;2023-05-10T05:27:51;98313.41;;;13.72;81.29
74798;BME280;63326;45.088;7.658;2023-05-10T05:30:18;98343.59;;;13.94;80.91
74798;BME280;63326;45.088;7.658;2023-05-10T05:32:44;98309.06;;;13.71;80.19
74798;BME280;63326;45.088;7.658;2023-05-10T05:35:13;98352.31;;;13.96;80.66
74798;BME280;63326;45.088;7.658;2023-05-10T05:37:40;98330.56;;;13.78;80.27
74798;BME280;63326;45.088;7.658;2023-05-10T05:40:07;98349.00;;;13.94;79.69
74798;BME280;63326;45.088;7.658;2023-05-10T05:42:34;98373.22;;;14.07;79.58
74798;BME280;63326;45.088;7.658;2023-05-10T05:45:01;98348.59;;;13.91;79.34
74798;BME280;63326;45.088;7.658;2023-05-10T05:47:28;98381.91;;;14.09;79.93
74798;BME280;63326;45.088;7.658;2023-05-10T05:49:55;98356.47;;;13.92;80.19
74798;BME280;63326;45.088;7.658;2023-05-10T05:52:22;98356.03;;;13.95;79.54
74798;BME280;63326;45.088;7.658;2023-05-10T05:54:51;98329.53;;;13.86;79.79
74798;BME280;63326;45.088;7.658;2023-05-10T05:57:18;98388.94;;;14.17;79.09
74798;BME280;63326;45.088;7.658;2023-05-10T05:59:45;98381.91;;;14.09;79.46
74798;BME280;63326;45.088;7.658;2023-05-10T06:02:13;98344.44;;;13.88;79.65
74798;BME280;63326;45.088;7.658;2023-05-10T06:04:40;98392.47;;;14.18;78.90
74798;BME280;63326;45.088;7.658;2023-05-10T06:07:10;98398.31;;;14.15;78.54
74798;BME280;63326;45.088;7.658;2023-05-10T06:09:36;98393.13;;;14.06;78.65
74798;BME280;63326;45.088;7.658;2023-05-10T06:12:04;98394.56;;;14.09;79.03
74798;BME280;63326;45.088;7.658;2023-05-10T06:14:31;98404.53;;;14.08;79.23
74798;BME280;63326;45.088;7.658;2023-05-10T06:16:58;98403.47;;;14.09;78.42
74798;BME280;63326;45.088;7.658;2023-05-10T06:19:26;98410.13;;;14.13;78.65
74798;BME280;63326;45.088;7.658;2023-05-10T06:21:53;98377.41;;;13.90;78.83
74798;BME280;63326;45.088;7.658;2023-05-10T06:24:23;98403.09;;;14.12;78.46
74798;BME280;63326;45.088;7.658;2023-05-10T06:26:50;98408.88;;;14.09;79.24
74798;BME280;63326;45.088;7.658;2023-05-10T06:29:17;98409.31;;;14.06;79.08
74798;BME280;63326;45.088;7.658;2023-05-10T06:31:47;98407.66;;;13.99;78.83
74798;BME280;63326;45.088;7.658;2023-05-10T06:34:25;98403.72;;;14.01;78.93
74798;BME280;63326;45.088;7.658;2023-05-10T06:36:52;98425.88;;;14.17;78.55
74798;BME280;63326;45.088;7.658;2023-05-10T06:39:19;98388.38;;;13.95;78.53
74798;BME280;63326;45.088;7.658;2023-05-10T06:41:48;98379.69;;;14.00;77.72
74798;BME280;63326;45.088;7.658;2023-05-10T06:44:19;98418.00;;;14.22;78.21
74798;BME280;63326;45.088;7.658;2023-05-10T06:46:46;98432.47;;;14.27;78.22
74798;BME280;63326;45.088;7.658;2023-05-10T06:49:13;98439.13;;;14.18;78.43
74798;BME280;63326;45.088;7.658;2023-05-10T06:51:40;98452.00;;;14.16;78.82
74798;BME280;63326;45.088;7.658;2023-05-10T06:54:07;98438.97;;;14.06;79.36
74798;BME280;63326;45.088;7.658;2023-05-10T06:56:34;98435.44;;;14.12;78.86
74798;BME280;63326;45.088;7.658;2023-05-10T06:59:00;98430.91;;;14.00;78.51
74798;BME280;63326;45.088;7.658;2023-05-10T07:01:28;98424.88;;;13.91;79.16
74798;BME280;63326;45.088;7.658;2023-05-10T07:03:55;98432.94;;;13.98;79.21
74798;BME280;63326;45.088;7.658;2023-05-10T07:06:22;98455.75;;;14.15;79.53
74798;BME280;63326;45.088;7.658;2023-05-10T07:08:59;98461.13;;;14.15;79.42
74798;BME280;63326;45.088;7.658;2023-05-10T07:11:27;98425.06;;;13.96;79.81
74798;BME280;63326;45.088;7.658;2023-05-10T07:13:53;98464.22;;;14.25;79.15
74798;BME280;63326;45.088;7.658;2023-05-10T07:16:23;98440.59;;;14.14;79.15
74798;BME280;63326;45.088;7.658;2023-05-10T07:18:49;98444.34;;;14.06;79.67
74798;BME280;63326;45.088;7.658;2023-05-10T07:21:18;98432.13;;;14.04;80.04
74798;BME280;63326;45.088;7.658;2023-05-10T07:23:45;98463.19;;;14.26;79.51
74798;BME280;63326;45.088;7.658;2023-05-10T07:26:16;98424.88;;;13.98;80.05
74798;BME280;63326;45.088;7.658;2023-05-10T07:28:47;98451.59;;;14.12;80.05
74798;BME280;63326;45.088;7.658;2023-05-10T07:31:16;98415.75;;;13.92;79.96
74798;BME280;63326;45.088;7.658;2023-05-10T07:33:43;98440.81;;;13.99;80.39
74798;BME280;63326;45.088;7.658;2023-05-10T07:36:10;98458.22;;;14.17;80.41
74798;BME280;63326;45.088;7.658;2023-05-10T07:38:37;98448.69;;;14.14;81.60
74798;BME280;63326;45.088;7.658;2023-05-10T07:41:06;98464.88;;;14.21;81.99
74798;BME280;63326;45.088;7.658;2023-05-10T07:43:33;98447.25;;;14.11;80.71
74798;BME280;63326;45.088;7.658;2023-05-10T07:46:00;98451.56;;;14.26;80.72
74798;BME280;63326;45.088;7.658;2023-05-10T07:48:27;98445.53;;;14.37;80.25
74798;BME280;63326;45.088;7.658;2023-05-10T07:50:54;98448.88;;;14.46;79.09
74798;BME280;63326;45.088;7.658;2023-05-10T07:53:26;98433.72;;;14.45;78.58
74798;BME280;63326;45.088;7.658;2023-05-10T07:55:57;98454.59;;;14.69;78.15
74798;BME280;63326;45.088;7.658;2023-05-10T07:58:25;98422.66;;;14.66;77.81
74798;BME280;63326;45.088;7.658;2023-05-10T08:00:52;98423.00;;;14.83;77.24
74798;BME280;63326;45.088;7.658;2023-05-10T08:03:18;98445.47;;;15.08;76.79
74798;BME280;63326;45.088;7.658;2023-05-10T08:05:46;98448.31;;;15.20;76.48
74798;BME280;63326;45.088;7.658;2023-05-10T08:08:12;98442.63;;;15.35;75.30
74798;BME280;63326;45.088;7.658;2023-05-10T08:10:39;98452.75;;;15.46;74.58
74798;BME280;63326;45.088;7.658;2023-05-10T08:13:06;98436.47;;;15.21;75.40
74798;BME280;63326;45.088;7.658;2023-05-10T08:15:32;98438.56;;;15.19;75.72
74798;BME280;63326;45.088;7.658;2023-05-10T08:17:59;98453.59;;;15.40;75.51
74798;BME280;63326;45.088;7.658;2023-05-10T08:20:26;98445.69;;;15.45;75.20
74798;BME280;63326;45.088;7.658;2023-05-10T08:22:53;98435.28;;;15.73;73.93
74798;BME280;63326;45.088;7.658;2023-05-10T08:25:19;98443.72;;;16.08;72.51
74798;BME280;63326;45.088;7.658;2023-05-10T08:27:46;98424.22;;;16.25;71.77
74798;BME280;63326;45.088;7.658;2023-05-10T08:30:13;98430.31;;;16.57;70.98
74798;BME280;63326;45.088;7.658;2023-05-10T08:32:40;98439.81;;;16.66;69.73
74798;BME280;63326;45.088;7.658;2023-05-10T08:35:07;98425.22;;;16.49;69.55
74798;BME280;63326;45.088;7.658;2023-05-10T08:37:34;98419.72;;;16.55;69.42
74798;BME280;63326;45.088;7.658;2023-05-10T08:40:01;98446.56;;;16.75;68.40
74798;BME280;63326;45.088;7.658;2023-05-10T08:42:30;98406.13;;;16.80;67.08
74798;BME280;63326;45.088;7.658;2023-05-10T08:44:59;98433.06;;;17.05;66.58
74798;BME280;63326;45.088;7.658;2023-05-10T08:47:26;98407.63;;;16.58;67.09
74798;BME280;63326;45.088;7.658;2023-05-10T08:49:54;98432.22;;;16.13;69.88
74798;BME280;63326;45.088;7.658;2023-05-10T08:52:21;98447.22;;;16.16;70.62
74798;BME280;63326;45.088;7.658;2023-05-10T08:54:50;98438.22;;;15.97;71.40
74798;BME280;63326;45.088;7.658;2023-05-10T08:57:20;98406.47;;;15.67;71.93
74798;BME280;63326;45.088;7.658;2023-05-10T08:59:47;98396.94;;;15.58;71.63
74798;BME280;63326;45.088;7.658;2023-05-10T09:02:14;98439.28;;;15.96;71.53
74798;BME280;63326;45.088;7.658;2023-05-10T09:04:44;98428.41;;;15.77;71.99
74798;BME280;63326;45.088;7.658;2023-05-10T09:07:11;98433.47;;;15.92;71.59
74798;BME280;63326;45.088;7.658;2023-05-10T09:09:38;98445.66;;;16.01;70.77
74798;BME280;63326;45.088;7.658;2023-05-10T09:12:05;98436.44;;;16.09;71.08
74798;BME280;63326;45.088;7.658;2023-05-10T09:14:35;98419.41;;;16.08;70.03
74798;BME280;63326;45.088;7.658;2023-05-10T09:17:06;98417.34;;;16.04;69.91
74798;BME280;63326;45.088;7.658;2023-05-10T09:19:33;98402.78;;;16.05;70.06
74798;BME280;63326;45.088;7.658;2023-05-10T09:22:06;98426.47;;;16.28;69.32
74798;BME280;63326;45.088;7.658;2023-05-10T09:24:33;98425.78;;;16.32;69.03
74798;BME280;63326;45.088;7.658;2023-05-10T09:27:06;98442.50;;;16.48;68.01
74798;BME280;63326;45.088;7.658;2023-05-10T09:29:42;98442.47;;;16.29;69.47
74798;BME280;63326;45.088;7.658;2023-05-10T09:32:09;98416.19;;;16.18;69.05
74798;BME280;63326;45.088;7.658;2023-05-10T09:34:36;98416.94;;;16.25;67.91
74798;BME280;63326;45.088;7.658;2023-05-10T09:37:06;98435.56;;;16.33;68.06
74798;BME280;63326;45.088;7.658;2023-05-10T09:39:36;98422.50;;;16.30;67.88
74798;BME280;63326;45.088;7.658;2023-05-10T09:42:10;98437.50;;;16.45;68.48
74798;BME280;63326;45.088;7.658;2023-05-10T09:44:36;98434.56;;;16.71;67.92
74798;BME280;63326;45.088;7.658;2023-05-10T09:47:04;98432.13;;;16.81;66.10
74798;BME280;63326;45.088;7.658;2023-05-10T09:49:31;98425.81;;;16.87;66.68
74798;BME280;63326;45.088;7.658;2023-05-10T09:52:05;98426.78;;;17.23;65.06
74798;BME280;63326;45.088;7.658;2023-05-10T09:54:33;98430.47;;;17.28;64.69
74798;BME280;63326;45.088;7.658;2023-05-10T09:57:00;98413.03;;;17.36;63.87
74798;BME280;63326;45.088;7.658;2023-05-10T09:59:28;98412.56;;;17.27;63.87
74798;BME280;63326;45.088;7.658;2023-05-10T10:02:01;98422.25;;;17.47;63.96
74798;BME280;63326;45.088;7.658;2023-05-10T10:04:29;98410.81;;;17.45;63.78
74798;BME280;63326;45.088;7.658;2023-05-10T10:07:00;98425.75;;;17.36;64.01
74798;BME280;63326;45.088;7.658;2023-05-10T10:09:28;98415.38;;;17.33;64.29
74798;BME280;63326;45.088;7.658;2023-05-10T10:11:55;98400.78;;;17.04;65.54
74798;BME280;63326;45.088;7.658;2023-05-10T10:14:23;98408.47;;;17.07;65.84
74798;BME280;63326;45.088;7.658;2023-05-10T10:16:50;98394.69;;;16.78;66.94
74798;BME280;63326;45.088;7.658;2023-05-10T10:19:35;98416.03;;;16.86;66.88
74798;BME280;63326;45.088;7.658;2023-05-10T10:22:03;98414.38;;;16.85;67.05
74798;BME280;63326;45.088;7.658;2023-05-10T10:24:31;98412.97;;;17.13;66.54
74798;BME280;63326;45.088;7.658;2023-05-10T10:27:05;98397.91;;;17.17;65.87
74798;BME280;63326;45.088;7.658;2023-05-10T10:29:37;98407.19;;;17.51;64.91
74798;BME280;63326;45.088;7.658;2023-05-10T10:32:24;98379.97;;;17.58;63.74
74798;BME280;63326;45.088;7.658;2023-05-10T10:34:54;98392.72;;;17.69;63.10
74798;BME280;63326;45.088;7.658;2023-05-10T10:37:21;98402.06;;;17.96;63.30
74798;BME280;63326;45.088;7.658;2023-05-10T10:39:49;98362.09;;;17.92;62.13
74798;BME280;63326;45.088;7.658;2023-05-10T10:42:46;98395.00;;;18.59;60.77
74798;BME280;63326;45.088;7.658;2023-05-10T10:45:13;98356.78;;;18.60;59.47
74798;BME280;63326;45.088;7.658;2023-05-10T10:47:40;98391.78;;;19.14;58.13
74798;BME280;63326;45.088;7.658;2023-05-10T10:50:09;98374.59;;;19.25;57.90
74798;BME280;63326;45.088;7.658;2023-05-10T10:52:40;98378.63;;;19.39;58.10
74798;BME280;63326;45.088;7.658;2023-05-10T10:57:46;98364.13;;;20.56;53.36
74798;BME280;63326;45.088;7.658;2023-05-10T11:00:36;98369.47;;;21.86;49.42
74798;BME280;63326;45.088;7.658;2023-05-10T11:03:13;98346.19;;;22.68;46.75
74798;BME280;63326;45.088;7.658;2023-05-10T11:05:49;98348.84;;;23.92;44.13
74798;BME280;63326;45.088;7.658;2023-05-10T11:08:28;98353.78;;;24.85;40.82
74798;BME280;63326;45.088;7.658;2023-05-10T11:13:42;98355.19;;;25.95;39.19
74798;BME280;63326;45.088;7.658;2023-05-10T11:16:27;98364.69;;;26.60;37.65
74798;BME280;63326;45.088;7.658;2023-05-10T11:19:02;98354.53;;;27.22;35.01
74798;BME280;63326;45.088;7.658;2023-05-10T11:21:30;98351.59;;;25.99;37.81
74798;BME280;63326;45.088;7.658;2023-05-10T11:23:58;98341.72;;;23.85;42.18
74798;BME280;63326;45.088;7.658;2023-05-10T11:26:34;98354.56;;;23.34;44.47
74798;BME280;63326;45.088;7.658;2023-05-10T11:29:02;98327.47;;;23.38;43.96
74798;BME280;63326;45.088;7.658;2023-05-10T11:31:31;98323.25;;;24.96;40.67
74798;BME280;63326;45.088;7.658;2023-05-10T11:33:59;98329.41;;;26.20;37.46
74798;BME280;63326;45.088;7.658;2023-05-10T11:36:32;98322.16;;;27.14;35.38
74798;BME280;63326;45.088;7.658;2023-05-10T11:38:59;98328.94;;;27.22;34.98
74798;BME280;63326;45.088;7.658;2023-05-10T11:41:27;98341.31;;;25.08;38.32
74798;BME280;63326;45.088;7.658;2023-05-10T11:43:55;98302.72;;;25.33;38.53
74798;BME280;63326;45.088;7.658;2023-05-10T11:46:24;98313.44;;;26.69;35.43
74798;BME280;63326;45.088;7.658;2023-05-10T11:48:55;98328.28;;;27.11;35.08
74798;BME280;63326;45.088;7.658;2023-05-10T11:51:25;98316.03;;;26.80;35.71
74798;BME280;63326;45.088;7.658;2023-05-10T11:53:56;98319.19;;;27.81;32.92
74798;BME280;63326;45.088;7.658;2023-05-10T11:56:23;98303.81;;;28.76;30.45
74798;BME280;63326;45.088;7.658;2023-05-10T11:58:54;98294.22;;;29.10;29.64
74798;BME280;63326;45.088;7.658;2023-05-10T12:01:23;98297.06;;;28.82;30.25
74798;BME280;63326;45.088;7.658;2023-05-10T12:03:51;98312.41;;;27.41;33.47
74798;BME280;63326;45.088;7.658;2023-05-10T12:06:20;98314.97;;;26.76;34.57
74798;BME280;63326;45.088;7.658;2023-05-10T12:08:48;98300.69;;;25.49;36.71
74798;BME280;63326;45.088;7.658;2023-05-10T12:11:19;98306.34;;;24.84;37.98
74798;BME280;63326;45.088;7.658;2023-05-10T12:13:48;98287.94;;;24.35;39.55
74798;BME280;63326;45.088;7.658;2023-05-10T12:16:26;98294.56;;;24.79;38.38
74798;BME280;63326;45.088;7.658;2023-05-10T12:18:59;98304.19;;;24.06;40.78
74798;BME280;63326;45.088;7.658;2023-05-10T12:21:30;98292.75;;;23.69;41.20
74798;BME280;63326;45.088;7.658;2023-05-10T12:24:03;98299.03;;;23.54;42.00
74798;BME280;63326;45.088;7.658;2023-05-10T12:26:31;98294.66;;;23.43;42.89
74798;BME280;63326;45.088;7.658;2023-05-10T12:29:17;98293.84;;;23.22;43.06
74798;BME280;63326;45.088;7.658;2023-05-10T12:31:58;98285.09;;;23.10;42.85
74798;BME280;63326;45.088;7.658;2023-05-10T12:34:33;98274.16;;;23.10;42.31
74798;BME280;63326;45.088;7.658;2023-05-10T12:37:03;98282.38;;;23.30;42.27
74798;BME280;63326;45.088;7.658;2023-05-10T12:39:44;98276.34;;;23.23;42.48
74798;BME280;63326;45.088;7.658;2023-05-10T12:42:11;98273.59;;;23.23;43.20
74798;BME280;63326;45.088;7.658;2023-05-10T12:44:38;98260.19;;;23.01;43.29
74798;BME280;63326;45.088;7.658;2023-05-10T12:47:06;98265.97;;;24.95;39.39
74798;BME280;63326;45.088;7.658;2023-05-10T12:49:32;98263.44;;;25.72;37.22
74798;BME280;63326;45.088;7.658;2023-05-10T12:52:00;98266.44;;;26.85;35.37
74798;BME280;63326;45.088;7.658;2023-05-10T12:54:27;98258.69;;;26.25;37.29
74798;BME280;63326;45.088;7.658;2023-05-10T12:56:54;98270.69;;;25.58;38.07
74798;BME280;63326;45.088;7.658;2023-05-10T12:59:20;98271.16;;;24.96;38.99
74798;BME280;63326;45.088;7.658;2023-05-10T13:01:47;98238.16;;;24.08;40.19
74798;BME280;63326;45.088;7.658;2023-05-10T13:04:13;98264.03;;;23.61;41.40
74798;BME280;63326;45.088;7.658;2023-05-10T13:06:40;98256.63;;;23.36;42.72
74798;BME280;63326;45.088;7.658;2023-05-10T13:09:07;98241.88;;;23.17;43.36
74798;BME280;63326;45.088;7.658;2023-05-10T13:11:34;98251.72;;;23.43;42.32
74798;BME280;63326;45.088;7.658;2023-05-10T13:14:01;98232.03;;;23.62;40.85
74798;BME280;63326;45.088;7.658;2023-05-10T13:16:29;98215.72;;;25.05;38.04
74798;BME280;63326;45.088;7.658;2023-05-10T13:18:56;98234.66;;;26.79;34.48
74798;BME280;63326;45.088;7.658;2023-05-10T13:21:23;98235.06;;;26.05;36.14
74798;BME280;63326;45.088;7.658;2023-05-10T13:23:51;98224.91;;;25.24;36.68
74798;BME280;63326;45.088;7.658;2023-05-10T13:26:18;98224.75;;;26.59;34.77
74798;BME280;63326;45.088;7.658;2023-05-10T13:28:45;98215.63;;;27.94;32.93
74798;BME280;63326;45.088;7.658;2023-05-10T13:31:12;98222.34;;;28.79;30.64
74798;BME280;63326;45.088;7.658;2023-05-10T13:33:38;98220.44;;;30.91;27.07